Historique des mesures à Cassis (13260), France
Quotidien Résumé Septembre 27, 2017 Unités:  Métrique    US   Métrique/US
« Précédent (Jour)
Suivant (Jour) »
Quotidien Hebdomadaire Mensuel Annuel Période au choix
  Maximum: Minimum: Moyenne:
Température: TemperatureC °C 17.4 °C 19.1 °C
Point de rosée: DewpointC °C 10.7 °C 12.5 °C
Humidité: Humidity % 59 % 62 %
Vitesse du vent: 0 km/h 0 km/h 4.5 km/h
Rafales: 0 km/h - -
Vent:- - SE
Pression: PressurehPa hPa 1017.5 hPa -
Précipitations: 0.0 mm    
Historical Graphs
 
 
Mesures pour : Septembre 27, 2017
Heure Temperature Point de rosée Pression Vent Vitesse du vent Rafales Humidité Pluie (par heure) Conditions
TemperatureC °C DewpointC °C PressurehPa hPa Calm     Humidity % HourlyPrecipMM mm SoftwareType W/m2
00:11 18.2 °C 12.7 °C 1017.8 hPa NNE 3.4 km/h 4.2 km/h 70 % 0.0 mm open2300-1.11 W/m2
01:11 17.9 °C 13.0 °C 1017.8 hPa NNE 3.4 km/h 9.8 km/h 73 % 0.0 mm open2300-1.11 W/m2
02:11 17.8 °C 12.9 °C 1017.8 hPa NW 7.6 km/h 7.6 km/h 73 % 0.0 mm open2300-1.11 W/m2
03:11 17.6 °C 12.5 °C 1017.8 hPa Calm   4.7 km/h 72 % 0.0 mm open2300-1.11 W/m2
04:11 17.5 °C 12.4 °C 1017.5 hPa North 2.9 km/h 4.2 km/h 72 % 0.0 mm open2300-1.11 W/m2
06:11 17.6 °C 11.6 °C 1017.8 hPa North 4.2 km/h 4.2 km/h 68 % 0.0 mm open2300-1.11 W/m2
07:11 17.4 °C 11.2 °C 1017.8 hPa NNW 5.1 km/h 5.1 km/h 67 % 0.0 mm open2300-1.11 W/m2
08:11 17.4 °C 11.2 °C 1018.5 hPa NNE 2.3 km/h 2.3 km/h 67 % 0.0 mm open2300-1.11 W/m2
09:11 18.8 °C 11.6 °C 1018.5 hPa NNE 2.3 km/h 2.3 km/h 63 % 0.0 mm open2300-1.11 W/m2
10:11 20.1 °C 12.6 °C 1019.2 hPa SE 6.9 km/h 6.9 km/h 62 % 0.0 mm open2300-1.11 W/m2
11:11 21.2 °C 13.6 °C 1018.8 hPa SE 7.6 km/h 7.6 km/h 62 % 0.0 mm open2300-1.11 W/m2
12:11 22.8 °C 14.3 °C 1019.2 hPa South 5.1 km/h 5.6 km/h 59 % 0.0 mm open2300-1.11 W/m2
13:11 23.6 °C 15.1 °C 1019.2 hPa South 19.6 km/h 19.6 km/h 59 % 0.0 mm open2300-1.11 W/m2
14:11 23.4 °C 16.2 °C 1019.2 hPa South 12.2 km/h 12.2 km/h 64 % 0.0 mm open2300-1.11 W/m2
15:11 23.3 °C 15.3 °C 1019.2 hPa Calm   9.8 km/h 61 % 0.0 mm open2300-1.11 W/m2
16:11 23.1 °C 15.4 °C 1018.8 hPa SW 10.9 km/h 18.7 km/h 62 % 0.0 mm open2300-1.11 W/m2
17:11 22.9 °C 15.2 °C 1018.8 hPa West 8 km/h 8 km/h 62 % 0.0 mm open2300-1.11 W/m2
18:11 22.3 °C 14.9 °C 1019.2 hPa SSE 5.6 km/h 5.6 km/h 63 % 0.0 mm open2300-1.11 W/m2
19:11 21.5 °C 13.9 °C 1019.2 hPa Calm     62 % 0.0 mm open2300-1.11 W/m2
20:11 20.0 °C 12.5 °C 1019.5 hPa Calm     62 % 0.0 mm open2300-1.11 W/m2
21:11 18.6 °C 11.2 °C 1020.2 hPa Calm   2.9 km/h 62 % 0.0 mm open2300-1.11 W/m2
22:11 18.1 °C 10.7 °C 1020.5 hPa Calm     62 % 0.0 mm open2300-1.11 W/m2
23:11 17.9 °C 10.9 °C 1020.5 hPa NNE 1.8 km/h 5.1 km/h 64 % 0.0 mm open2300-1.11 W/m2
Observations météo à CASSIS
WU-History script by Weather Underground - 1 mb